Terminal Aerodrome Forecast
Issued by NWS

Home | Current Version | Previous Version | Graphics & Text | Print | Product List | Glossary On
Versions: 1 2 3 4 5 6 7 8 9 10 11 12 13 14 15 16
608
FTUS43 KBIS 271741
TAFMOT
TAF
KMOT 271741Z 2718/2818 06005KT P6SM SCT030 BKN100
     FM272300 04007KT P6SM SCT100
     FM280800 VRB03KT P6SM SCT200
     FM281500 13006KT P6SM BKN040=

USA.gov is the U.S. government's official web portal to all federal, state and local government web resources and services.